Niznij Tagil, Russia
Current Conditions -  °F | °C
As of 1:00 AM on Monday 22 Dec 2014 (Local Time) from USSS Reporting Station
Overcast Overcast  
Wind Chill: 27°   Ceiling: 2300
Heat Index: 34°   Visibility: 6mi
Dew Point: 30°   Wind: 9mph
Humidity: 87%   Direction: 230°SW
Pressure: 29.71"   Gusts: NA
Location:  57.3°N, 60°E
Report Text: USSS 212000Z 23004MPS 9999 BKN023 OVC045 01/M01 Q1006 7629//40NOSIG RMK QFE733
Loading
Personal Weather Stations






























Interactive Weather Map New forecast layout! Learn more

10-Day Weather Forecast

Advertisements
Track Severe Weather on mobile